createdAt,value
2018-12-21T00:01:15.700Z,60.97
2018-12-21T00:03:45.924Z,62.60
2018-12-21T00:06:15.964Z,61.37
2018-12-21T00:08:46.356Z,62.00
2018-12-21T00:11:16.751Z,60.83
2018-12-21T00:13:52.100Z,62.53
2018-12-21T00:16:22.436Z,61.03
2018-12-21T00:18:52.500Z,63.30
2018-12-21T00:21:22.609Z,62.30
2018-12-21T00:23:59.217Z,61.80
2018-12-21T00:26:29.343Z,61.27
2018-12-21T00:28:59.519Z,61.43
2018-12-21T00:31:34.695Z,62.97
2018-12-21T00:34:10.100Z,64.17
2018-12-21T00:36:45.953Z,64.37
2018-12-21T00:39:21.284Z,64.17
2018-12-21T00:41:50.542Z,63.27
2018-12-21T00:44:37.353Z,63.73
2018-12-21T00:47:11.860Z,62.33
2018-12-21T00:49:42.801Z,61.73
2018-12-21T00:52:13.550Z,61.87
2018-12-21T00:54:53.731Z,60.53
2018-12-21T00:57:23.894Z,62.87
2018-12-21T00:59:54.058Z,63.63
2018-12-21T01:02:24.539Z,61.03
2018-12-21T01:04:54.770Z,64.63
2018-12-21T01:07:24.893Z,60.40
2018-12-21T01:09:55.185Z,62.20
2018-12-21T01:12:25.439Z,59.27
2018-12-21T01:14:55.927Z,60.93
2018-12-21T01:17:26.248Z,61.47
2018-12-21T01:19:56.096Z,59.80
2018-12-21T01:22:26.244Z,60.13
2018-12-21T01:24:56.377Z,58.83
2018-12-21T01:27:26.486Z,59.17
2018-12-21T01:29:56.590Z,61.07
2018-12-21T01:32:26.724Z,59.23
2018-12-21T01:34:56.858Z,58.83
2018-12-21T01:37:27.012Z,59.10
2018-12-21T01:39:57.049Z,58.17
2018-12-21T01:42:27.190Z,60.17
2018-12-21T01:44:57.387Z,59.87
2018-12-21T01:47:27.441Z,60.20
2018-12-21T01:49:57.416Z,57.73
2018-12-21T01:52:27.383Z,58.33
2018-12-21T01:54:57.478Z,57.87
2018-12-21T01:57:28.621Z,60.67
2018-12-21T01:59:58.762Z,58.67
2018-12-21T02:02:28.784Z,59.00
2018-12-21T02:04:59.881Z,58.43
2018-12-21T02:07:30.053Z,57.33
2018-12-21T02:10:00.199Z,56.83
2018-12-21T02:12:30.089Z,57.60
2018-12-21T02:15:00.348Z,57.20
2018-12-21T02:17:30.454Z,55.90
2018-12-21T02:20:00.406Z,55.97
2018-12-21T02:22:30.388Z,58.40
2018-12-21T02:25:01.014Z,58.07
2018-12-21T02:27:31.132Z,56.90
2018-12-21T02:30:01.285Z,56.30
2018-12-21T02:32:32.655Z,57.07
2018-12-21T02:35:03.002Z,57.87
2018-12-21T02:37:33.031Z,57.40
2018-12-21T02:40:03.530Z,60.17
2018-12-21T02:42:33.925Z,59.27
2018-12-21T02:45:05.187Z,58.17
2018-12-21T02:47:35.426Z,58.27
2018-12-21T02:50:06.142Z,57.60
2018-12-21T02:52:36.208Z,57.40
2018-12-21T02:55:06.534Z,57.27
2018-12-21T02:57:36.562Z,55.73
2018-12-21T03:00:08.850Z,56.43
2018-12-21T03:02:38.834Z,57.90
2018-12-21T03:05:09.171Z,53.77
2018-12-21T03:07:39.383Z,55.33
2018-12-21T03:10:09.579Z,54.23
2018-12-21T03:12:39.624Z,54.87
2018-12-21T03:15:10.075Z,51.63
2018-12-21T03:17:40.163Z,56.03
2018-12-21T03:20:10.247Z,52.97
2018-12-21T03:22:40.614Z,53.80
2018-12-21T03:25:10.824Z,54.17
2018-12-21T03:27:41.164Z,53.27
2018-12-21T03:30:11.749Z,53.53
2018-12-21T03:32:41.800Z,51.90
2018-12-21T03:35:12.380Z,53.80
2018-12-21T03:37:42.534Z,54.00
2018-12-21T03:40:13.104Z,55.33
2018-12-21T03:42:43.113Z,56.03
2018-12-21T03:45:13.622Z,53.60
2018-12-21T03:47:43.780Z,54.23
2018-12-21T03:50:14.228Z,52.73
2018-12-21T03:52:44.399Z,53.40
2018-12-21T03:55:15.145Z,54.27
2018-12-21T03:57:45.138Z,55.33
2018-12-21T04:00:15.442Z,52.83
2018-12-21T04:02:45.543Z,52.07
2018-12-21T04:05:21.088Z,52.60
2018-12-21T04:07:51.715Z,50.30
2018-12-21T04:10:21.702Z,50.77
2018-12-21T04:12:51.889Z,50.80
2018-12-21T04:15:21.946Z,53.13
2018-12-21T04:17:52.228Z,52.60
2018-12-21T04:20:23.526Z,51.57
2018-12-21T04:22:56.354Z,54.10
2018-12-21T04:25:27.194Z,54.57
2018-12-21T04:27:57.563Z,53.20
2018-12-21T04:30:27.727Z,53.87
2018-12-21T04:32:58.290Z,54.23
2018-12-21T04:35:30.854Z,56.53
2018-12-21T04:38:00.787Z,53.07
2018-12-21T04:40:32.592Z,51.03
2018-12-21T04:43:04.406Z,53.13
2018-12-21T04:45:34.745Z,55.53
2018-12-21T04:48:05.485Z,52.90
2018-12-21T04:50:35.614Z,51.03
2018-12-21T04:53:06.194Z,52.33
2018-12-21T04:55:36.131Z,50.63
2018-12-21T04:58:06.444Z,50.97
2018-12-21T05:00:36.592Z,49.43
2018-12-21T05:03:07.382Z,53.97
2018-12-21T05:05:39.468Z,50.93
2018-12-21T05:08:09.720Z,53.97
2018-12-21T05:10:40.188Z,52.93
2018-12-21T05:13:10.328Z,55.60
2018-12-21T05:15:40.863Z,54.90
2018-12-21T05:18:10.855Z,54.83
2018-12-21T05:20:41.206Z,55.37
2018-12-21T05:23:12.065Z,56.47
2018-12-21T05:25:42.353Z,53.10
2018-12-21T05:28:12.850Z,54.67
2018-12-21T05:30:42.872Z,53.70
2018-12-21T05:33:13.594Z,53.00
2018-12-21T05:35:43.950Z,53.37
2018-12-21T05:38:15.358Z,51.70
2018-12-21T05:40:45.926Z,51.23
2018-12-21T05:43:16.226Z,49.03
2018-12-21T05:45:46.443Z,50.80
2018-12-21T05:48:16.733Z,50.47
2018-12-21T05:50:47.406Z,48.43
2018-12-21T05:53:17.720Z,49.37
2018-12-21T05:55:48.252Z,50.03
2018-12-21T05:58:18.547Z,49.00
2018-12-21T06:00:48.687Z,50.73
2018-12-21T06:03:19.118Z,49.33
2018-12-21T06:05:49.328Z,51.77
2018-12-21T06:08:19.906Z,49.20
2018-12-21T06:10:50.191Z,49.97
2018-12-21T06:13:22.607Z,51.10
2018-12-21T06:15:52.850Z,48.70
2018-12-21T06:18:22.904Z,52.43
2018-12-21T06:20:52.918Z,49.33
2018-12-21T06:23:23.155Z,49.97
2018-12-21T06:25:53.442Z,46.83
2018-12-21T06:28:23.662Z,46.77
2018-12-21T06:30:53.882Z,47.93
2018-12-21T06:33:24.154Z,46.17
2018-12-21T06:35:54.297Z,50.30
2018-12-21T06:38:24.669Z,48.80
2018-12-21T06:40:54.791Z,47.17
2018-12-21T06:43:25.061Z,47.20
2018-12-21T06:45:57.242Z,47.93
2018-12-21T06:48:27.200Z,47.50
2018-12-21T06:50:57.640Z,46.80
2018-12-21T06:53:33.056Z,47.87
2018-12-21T06:56:03.307Z,48.03
2018-12-21T06:58:34.644Z,46.80
2018-12-21T07:01:05.794Z,48.67
2018-12-21T07:03:36.522Z,48.43
2018-12-21T07:06:07.021Z,46.00
2018-12-21T07:08:38.663Z,48.60
2018-12-21T07:11:08.953Z,46.97
2018-12-21T07:13:39.657Z,47.67
2018-12-21T07:16:10.047Z,48.53
2018-12-21T07:18:40.525Z,46.40
2018-12-21T07:21:10.711Z,44.07
2018-12-21T07:23:41.455Z,43.43
2018-12-21T07:26:11.860Z,43.70
2018-12-21T07:28:42.028Z,47.53
2018-12-21T07:31:12.486Z,46.33
2018-12-21T07:33:42.965Z,47.73
2018-12-21T07:36:14.159Z,47.60
2018-12-21T07:38:44.568Z,47.47
2018-12-21T07:41:14.846Z,50.50
2018-12-21T07:43:44.904Z,52.17
2018-12-21T07:46:15.143Z,52.57
2018-12-21T07:48:45.384Z,51.37
2018-12-21T07:51:15.516Z,54.43
2018-12-21T07:53:45.835Z,55.43
2018-12-21T07:56:16.155Z,57.13
2018-12-21T07:58:46.272Z,54.43
2018-12-21T08:01:16.427Z,53.00
2018-12-21T08:03:46.657Z,53.37
2018-12-21T08:06:16.959Z,53.63
2018-12-21T08:08:48.169Z,56.13
2018-12-21T08:11:18.311Z,63.93
2018-12-21T08:13:48.739Z,60.80
2018-12-21T08:16:18.895Z,64.10
2018-12-21T08:18:49.415Z,64.70
2018-12-21T08:21:19.707Z,59.10
2018-12-21T08:23:50.042Z,58.33
2018-12-21T08:26:20.406Z,55.27
2018-12-21T08:28:50.710Z,54.23
2018-12-21T08:31:20.921Z,55.67
2018-12-21T08:33:51.560Z,52.50
2018-12-21T08:36:21.893Z,52.50
2018-12-21T08:38:51.730Z,54.20
2018-12-21T08:41:21.880Z,53.13
2018-12-21T08:43:51.897Z,52.30
2018-12-21T08:46:21.961Z,51.90
2018-12-21T08:48:52.882Z,50.27
2018-12-21T08:51:23.380Z,54.70
2018-12-21T08:53:53.863Z,53.17
2018-12-21T08:56:24.110Z,52.17
2018-12-21T08:58:54.576Z,53.90
2018-12-21T09:01:24.685Z,53.67
2018-12-21T09:03:55.965Z,55.10
2018-12-21T09:06:26.041Z,55.20
2018-12-21T09:08:56.163Z,59.00
2018-12-21T09:11:26.401Z,59.07
2018-12-21T09:14:01.644Z,64.17
2018-12-21T09:16:31.801Z,65.77
2018-12-21T09:19:02.127Z,63.73
2018-12-21T09:21:32.198Z,64.70
2018-12-21T09:24:02.293Z,62.53
2018-12-21T09:26:32.467Z,72.23
2018-12-21T09:29:02.581Z,68.20
2018-12-21T09:31:32.749Z,69.40
2018-12-21T09:34:02.900Z,67.50
2018-12-21T09:36:33.445Z,68.57
2018-12-21T09:39:04.239Z,65.87
2018-12-21T09:41:34.257Z,67.40
2018-12-21T09:44:04.780Z,68.87
2018-12-21T09:46:35.921Z,67.83
2018-12-21T09:49:06.219Z,74.33
2018-12-21T09:51:36.546Z,71.80
2018-12-21T09:54:10.060Z,72.40
2018-12-21T09:56:39.399Z,70.30
2018-12-21T09:59:10.257Z,74.53
2018-12-21T10:01:40.620Z,73.47
2018-12-21T10:04:11.216Z,72.60
2018-12-21T10:06:41.627Z,73.90
2018-12-21T10:09:12.604Z,71.17
2018-12-21T10:11:42.978Z,66.30
2018-12-21T10:14:13.455Z,72.40
2018-12-21T10:16:43.487Z,69.80
2018-12-21T10:19:14.114Z,71.37
2018-12-21T10:21:44.134Z,74.03
2018-12-21T10:24:18.646Z,70.10
2018-12-21T10:26:48.068Z,71.27
2018-12-21T10:29:18.610Z,71.47
2018-12-21T10:31:49.633Z,69.90
2018-12-21T10:34:20.440Z,74.60
2018-12-21T10:36:50.722Z,76.40
2018-12-21T10:39:22.600Z,70.57
2018-12-21T10:41:52.865Z,70.63
2018-12-21T10:44:23.539Z,77.00
2018-12-21T10:46:53.623Z,76.87
2018-12-21T10:49:24.012Z,71.40
2018-12-21T10:51:54.084Z,72.93
2018-12-21T10:54:27.004Z,74.13
2018-12-21T10:56:56.815Z,75.50
2018-12-21T10:59:26.888Z,72.40
2018-12-21T11:01:56.919Z,73.83
2018-12-21T11:04:27.309Z,71.03
2018-12-21T11:06:57.591Z,71.60
2018-12-21T11:09:27.616Z,74.77
2018-12-21T11:11:57.730Z,73.13
2018-12-21T11:14:28.732Z,73.00
2018-12-21T11:16:59.147Z,73.60
2018-12-21T11:19:29.351Z,74.20
2018-12-21T11:21:59.789Z,71.60
2018-12-21T11:24:35.427Z,71.73
2018-12-21T11:27:02.280Z,70.20
2018-12-21T11:29:32.444Z,74.73
2018-12-21T11:32:02.676Z,71.67
2018-12-21T11:34:38.140Z,71.43
2018-12-21T11:37:08.373Z,69.93
2018-12-21T11:39:38.463Z,69.90
2018-12-21T11:42:08.611Z,68.53
2018-12-21T11:44:39.425Z,70.57
2018-12-21T11:47:09.965Z,69.50
2018-12-21T11:49:40.221Z,69.77
2018-12-21T11:52:10.430Z,71.43
2018-12-21T11:54:46.064Z,67.80
2018-12-21T11:57:16.266Z,64.83
2018-12-21T11:59:46.388Z,63.70
2018-12-21T12:02:19.814Z,63.93
2018-12-21T12:04:54.916Z,64.00
2018-12-21T12:07:26.141Z,66.67
2018-12-21T12:09:56.778Z,63.63
2018-12-21T12:12:26.904Z,67.60
2018-12-21T12:14:57.480Z,63.33
2018-12-21T12:17:28.062Z,64.73
2018-12-21T12:19:59.034Z,65.60
2018-12-21T12:22:29.017Z,65.23
2018-12-21T12:24:59.479Z,71.20
2018-12-21T12:27:29.380Z,66.17
2018-12-21T12:29:59.700Z,69.40
2018-12-21T12:32:30.546Z,69.00
2018-12-21T12:35:01.052Z,67.97
2018-12-21T12:37:31.689Z,68.10
2018-12-21T12:40:02.197Z,68.37
2018-12-21T12:42:32.342Z,68.47
2018-12-21T12:45:03.001Z,68.97
2018-12-21T12:47:33.423Z,68.43
2018-12-21T12:50:03.948Z,71.13
2018-12-21T12:52:35.485Z,72.93
2018-12-21T12:55:06.553Z,69.50
2018-12-21T12:57:37.180Z,74.07
2018-12-21T13:00:10.569Z,69.63
2018-12-21T13:02:41.034Z,67.87
2018-12-21T13:05:12.184Z,67.23
2018-12-21T13:07:44.209Z,66.53
2018-12-21T13:10:15.218Z,64.07
2018-12-21T13:12:47.208Z,64.30
2018-12-21T13:15:17.622Z,62.87
2018-12-21T13:17:48.382Z,62.27
2018-12-21T13:20:19.492Z,55.70
2018-12-21T13:22:49.502Z,58.17
2018-12-21T13:25:21.393Z,58.90
2018-12-21T13:27:51.616Z,58.30
2018-12-21T13:30:21.914Z,56.50
2018-12-21T13:32:52.384Z,58.30
2018-12-21T13:35:23.097Z,56.23
2018-12-21T13:37:53.216Z,57.30
2018-12-21T13:40:24.441Z,53.57
2018-12-21T13:42:54.553Z,53.73
2018-12-21T13:45:25.172Z,55.77
2018-12-21T13:47:55.319Z,53.33
2018-12-21T13:50:25.810Z,53.47
2018-12-21T13:55:42.751Z,53.80
2018-12-21T13:58:13.346Z,49.40
2018-12-21T14:00:43.856Z,52.50
2018-12-21T14:03:14.374Z,53.93
2018-12-21T14:05:44.550Z,51.93
2018-12-21T14:08:14.827Z,50.97
2018-12-21T14:10:45.055Z,51.47
2018-12-21T14:13:21.893Z,53.57
2018-12-21T14:15:52.100Z,49.50
2018-12-21T14:18:22.417Z,49.50
2018-12-21T14:20:52.578Z,48.80
2018-12-21T14:23:23.273Z,50.60
2018-12-21T14:25:53.422Z,48.07
2018-12-21T14:28:23.629Z,46.33
2018-12-21T14:30:53.941Z,45.27
2018-12-21T14:33:24.518Z,46.87
2018-12-21T14:35:54.748Z,43.23
2018-12-21T14:38:25.026Z,44.13
2018-12-21T14:40:55.666Z,44.40
2018-12-21T14:43:26.062Z,47.70
2018-12-21T14:45:56.117Z,44.43
2018-12-21T14:48:26.403Z,46.07
2018-12-21T14:50:56.556Z,45.60
2018-12-21T14:53:26.879Z,47.17
2018-12-21T14:55:57.263Z,44.57
2018-12-21T14:58:29.015Z,42.23
2018-12-21T15:00:59.254Z,35.33
2018-12-21T15:03:29.498Z,37.40
2018-12-21T15:05:59.914Z,38.50
2018-12-21T15:08:30.192Z,38.53
2018-12-21T15:11:00.554Z,37.90
2018-12-21T15:13:36.009Z,37.13
2018-12-21T15:16:06.727Z,37.87
2018-12-21T15:18:36.763Z,33.73
2018-12-21T15:21:07.343Z,33.97
2018-12-21T15:23:37.446Z,32.07
2018-12-21T15:26:08.324Z,30.90
2018-12-21T15:28:38.713Z,31.97
2018-12-21T15:31:09.249Z,32.67
2018-12-21T15:33:39.728Z,31.47
2018-12-21T15:36:09.864Z,35.07
2018-12-21T15:38:39.996Z,33.60
2018-12-21T15:41:10.364Z,33.60
2018-12-21T15:43:40.590Z,31.40
2018-12-21T15:46:11.050Z,30.60
2018-12-21T15:48:41.445Z,31.13
2018-12-21T15:51:11.871Z,32.23
2018-12-21T15:53:42.480Z,32.73
2018-12-21T15:56:14.103Z,31.57
2018-12-21T15:58:44.248Z,31.63
2018-12-21T16:01:14.856Z,31.50
2018-12-21T16:03:45.932Z,30.00
2018-12-21T16:06:16.165Z,29.50
2018-12-21T16:08:46.656Z,30.97
2018-12-21T16:11:16.972Z,33.37
2018-12-21T16:13:47.336Z,32.00
2018-12-21T16:16:17.622Z,33.90
2018-12-21T16:18:47.716Z,33.17
2018-12-21T16:21:18.923Z,33.80
2018-12-21T16:23:49.115Z,36.73
2018-12-21T16:26:19.371Z,38.57
2018-12-21T16:28:49.552Z,39.73
2018-12-21T16:31:20.104Z,39.43
2018-12-21T16:33:50.563Z,43.20
2018-12-21T16:36:20.793Z,42.67
2018-12-21T16:38:51.227Z,45.30
2018-12-21T16:41:21.567Z,45.40
2018-12-21T16:43:51.871Z,49.50
2018-12-21T16:46:22.479Z,46.60
2018-12-21T16:48:52.853Z,49.80
2018-12-21T16:51:22.945Z,48.83
2018-12-21T16:53:53.473Z,50.27
2018-12-21T16:56:23.906Z,50.73
2018-12-21T16:58:54.055Z,52.47
2018-12-21T17:01:24.194Z,49.80
2018-12-21T17:03:55.351Z,52.10
2018-12-21T17:06:25.464Z,52.87
2018-12-21T17:08:55.600Z,59.13
2018-12-21T17:11:25.721Z,59.20
2018-12-21T17:13:56.056Z,57.93
2018-12-21T17:16:26.206Z,61.63
2018-12-21T17:18:56.887Z,69.60
2018-12-21T17:21:27.090Z,68.27
2018-12-21T17:23:57.365Z,69.90
2018-12-21T17:26:27.660Z,68.33
2018-12-21T17:28:57.851Z,75.37
2018-12-21T17:31:29.008Z,74.43
2018-12-21T17:33:59.573Z,72.80
2018-12-21T17:36:29.845Z,73.20
2018-12-21T17:39:00.187Z,81.00
2018-12-21T17:41:30.507Z,72.97
2018-12-21T17:44:00.631Z,73.27
2018-12-21T17:46:31.181Z,75.83
2018-12-21T17:49:01.255Z,71.83
2018-12-21T17:51:31.584Z,77.77
2018-12-21T17:54:01.985Z,73.13
2018-12-21T17:56:32.061Z,74.83
2018-12-21T17:59:02.269Z,74.30
2018-12-21T18:01:34.219Z,71.53
2018-12-21T18:04:17.846Z,72.23
2018-12-21T18:06:47.922Z,70.50
2018-12-21T18:09:18.351Z,71.47
2018-12-21T18:11:57.012Z,70.80
2018-12-21T18:14:21.022Z,72.30
2018-12-21T18:16:51.274Z,74.13
2018-12-21T18:19:21.768Z,73.73
2018-12-21T18:22:02.476Z,73.30
2018-12-21T18:24:32.923Z,72.70
2018-12-21T18:27:03.118Z,69.33
2018-12-21T18:29:35.070Z,73.47
2018-12-21T18:32:40.479Z,75.50
2018-12-21T18:35:16.560Z,71.13
2018-12-21T18:37:52.039Z,77.80
2018-12-21T18:40:23.436Z,79.20
2018-12-21T18:42:53.984Z,71.97
2018-12-21T18:45:24.362Z,81.43
2018-12-21T18:47:55.136Z,76.63
2018-12-21T18:50:26.475Z,77.70
2018-12-21T18:52:57.517Z,72.67
2018-12-21T18:55:28.112Z,76.30
2018-12-21T18:57:58.023Z,73.07
2018-12-21T19:00:28.218Z,74.63
2018-12-21T19:02:59.014Z,75.07
2018-12-21T19:05:29.106Z,78.23
2018-12-21T19:07:59.478Z,72.60
2018-12-21T19:10:29.704Z,74.30
2018-12-21T19:12:59.861Z,80.47
2018-12-21T19:15:30.088Z,72.40
2018-12-21T19:18:00.740Z,74.07
2018-12-21T19:20:31.062Z,74.20
2018-12-21T19:23:01.507Z,71.20
2018-12-21T19:25:31.753Z,74.33
2018-12-21T19:28:02.001Z,72.40
2018-12-21T19:30:32.299Z,70.93
2018-12-21T19:33:02.564Z,69.57
2018-12-21T19:35:32.986Z,70.57
2018-12-21T19:38:03.099Z,69.53
2018-12-21T19:40:33.445Z,73.40
2018-12-21T19:43:04.047Z,69.20
2018-12-21T19:45:34.604Z,66.27
2018-12-21T19:48:06.210Z,65.50
2018-12-21T19:50:36.649Z,62.43
2018-12-21T19:53:07.658Z,66.53
2018-12-21T19:56:01.544Z,60.77
2018-12-21T19:58:31.592Z,62.37
2018-12-21T20:01:01.872Z,62.70
2018-12-21T20:03:32.332Z,61.80
2018-12-21T20:06:02.483Z,63.80
2018-12-21T20:08:32.610Z,66.73
2018-12-21T20:11:03.033Z,65.97
2018-12-21T20:13:34.508Z,60.97
2018-12-21T20:16:05.878Z,63.70
2018-12-21T20:18:35.923Z,60.43
2018-12-21T20:21:06.648Z,60.70
2018-12-21T20:23:37.278Z,63.07
2018-12-21T20:26:07.800Z,60.67
2018-12-21T20:28:37.821Z,60.10
2018-12-21T20:31:08.945Z,61.97
2018-12-21T20:33:40.500Z,57.80
2018-12-21T20:36:12.178Z,57.33
2018-12-21T20:38:42.372Z,55.40
2018-12-21T20:41:12.943Z,56.83
2018-12-21T20:43:43.493Z,57.33
2018-12-21T20:46:14.529Z,60.53
2018-12-21T20:48:44.911Z,58.27
2018-12-21T20:51:15.233Z,56.87
2018-12-21T20:53:45.933Z,56.27
2018-12-21T20:56:16.131Z,57.90
2018-12-21T20:58:57.404Z,58.10
2018-12-21T21:01:27.495Z,54.90
2018-12-21T21:03:57.552Z,59.80
2018-12-21T21:06:28.028Z,59.10
2018-12-21T21:08:58.473Z,57.53
2018-12-21T21:11:28.674Z,59.83
2018-12-21T21:13:59.122Z,60.07
2018-12-21T21:16:29.130Z,58.83
2018-12-21T21:18:59.612Z,59.67
2018-12-21T21:21:29.525Z,60.57
2018-12-21T21:24:00.208Z,59.40
2018-12-21T21:26:31.451Z,56.27
2018-12-21T21:29:01.647Z,60.73
2018-12-21T21:31:34.161Z,59.60
2018-12-21T21:34:05.084Z,60.43
2018-12-21T21:36:35.598Z,61.47
2018-12-21T21:39:07.277Z,57.00
2018-12-21T21:41:38.077Z,59.20
2018-12-21T21:44:09.217Z,55.80
2018-12-21T21:46:39.469Z,56.93
2018-12-21T21:49:10.035Z,57.37
2018-12-21T21:51:40.573Z,57.90
2018-12-21T21:54:11.643Z,59.17
2018-12-21T21:56:42.013Z,57.70
2018-12-21T21:59:12.712Z,58.57
2018-12-21T22:01:43.554Z,63.07
2018-12-21T22:04:19.443Z,62.13
2018-12-21T22:06:49.620Z,57.30
2018-12-21T22:09:19.859Z,60.07
2018-12-21T22:11:50.081Z,59.67
2018-12-21T22:14:20.272Z,60.87
2018-12-21T22:16:50.700Z,59.53
2018-12-21T22:19:21.018Z,63.17
2018-12-21T22:21:51.801Z,62.23
2018-12-21T22:24:22.200Z,63.30
2018-12-21T22:26:52.510Z,62.93
2018-12-21T22:29:22.971Z,56.27
2018-12-21T22:31:53.214Z,57.20
2018-12-21T22:34:23.878Z,55.17
2018-12-21T22:36:54.003Z,60.20
2018-12-21T22:39:24.236Z,57.77
2018-12-21T22:41:54.453Z,60.47
2018-12-21T22:44:24.870Z,58.60
2018-12-21T22:46:55.024Z,63.90
2018-12-21T22:49:25.266Z,64.50
2018-12-21T22:51:55.473Z,66.03
2018-12-21T22:54:25.687Z,68.20
2018-12-21T22:56:55.832Z,70.13
2018-12-21T22:59:26.322Z,65.00
2018-12-21T23:01:56.535Z,65.33
2018-12-21T23:04:26.616Z,62.83
2018-12-21T23:06:56.533Z,61.80
2018-12-21T23:09:26.629Z,61.20
2018-12-21T23:12:11.505Z,59.87
2018-12-21T23:14:41.975Z,61.20
2018-12-21T23:17:12.525Z,61.17
2018-12-21T23:19:43.053Z,61.70
2018-12-21T23:22:13.584Z,62.40
2018-12-21T23:24:44.421Z,57.37
2018-12-21T23:27:14.835Z,57.37
2018-12-21T23:29:45.343Z,57.07
2018-12-21T23:32:15.271Z,59.23
2018-12-21T23:34:46.139Z,60.23
2018-12-21T23:37:16.467Z,58.33
2018-12-21T23:39:46.807Z,57.10
2018-12-21T23:42:17.025Z,54.67
2018-12-21T23:44:47.487Z,58.00
2018-12-21T23:47:17.598Z,57.07
2018-12-21T23:49:47.764Z,53.43
2018-12-21T23:52:17.895Z,57.77
2018-12-21T23:54:48.389Z,60.80
2018-12-21T23:57:18.480Z,61.10
2018-12-21T23:59:48.850Z,56.30
